Terminal Aerodrome Forecast
Issued by NWS

Home | Current Version | Previous Version | Text Only | Print | Product List | Glossary On
Versions: 1 2 3 4 5 6 7 8 9 10 11 12 13 14 15 16 17 18 19 20 21 22 23 24 25 26 27 28 29 30 31 32
000
FTUS44 KHGX 191730
TAFUTS
TAF
KUTS 191730Z 1918/2018 VRB05KT P6SM VCSH SCT008 OVC035
     FM192000 01007KT P6SM SCT008 BKN018
     FM201000 01004KT 5SM BR SCT010 BKN030
     FM201400 36002KT P6SM BKN030=

USA.gov is the U.S. government's official web portal to all federal, state and local government web resources and services.